sensor_id;sensor_type;location;lat;lon;timestamp;P1;durP1;ratioP1;P2;durP2;ratioP2
50267;SDS011;36153;50.960;6.220;2024-02-04T00:01:24;5.60;;;3.00;;
50267;SDS011;36153;50.960;6.220;2024-02-04T00:03:25;5.90;;;3.03;;
50267;SDS011;36153;50.960;6.220;2024-02-04T00:05:25;4.22;;;2.60;;
50267;SDS011;36153;50.960;6.220;2024-02-04T00:07:25;4.75;;;2.83;;
50267;SDS011;36153;50.960;6.220;2024-02-04T00:09:26;3.45;;;2.42;;
50267;SDS011;36153;50.960;6.220;2024-02-04T00:13:30;3.95;;;2.25;;
50267;SDS011;36153;50.960;6.220;2024-02-04T00:15:31;5.00;;;2.85;;
50267;SDS011;36153;50.960;6.220;2024-02-04T00:17:31;3.92;;;1.95;;
50267;SDS011;36153;50.960;6.220;2024-02-04T00:19:33;3.53;;;1.90;;
50267;SDS011;36153;50.960;6.220;2024-02-04T00:21:34;2.97;;;1.65;;
50267;SDS011;36153;50.960;6.220;2024-02-04T00:23:35;3.75;;;1.92;;
50267;SDS011;36153;50.960;6.220;2024-02-04T00:25:35;3.30;;;2.33;;
50267;SDS011;36153;50.960;6.220;2024-02-04T00:27:35;3.80;;;2.47;;
50267;SDS011;36153;50.960;6.220;2024-02-04T00:29:36;4.75;;;2.20;;
50267;SDS011;36153;50.960;6.220;2024-02-04T00:31:36;3.65;;;2.05;;
50267;SDS011;36153;50.960;6.220;2024-02-04T00:33:36;3.55;;;2.00;;
50267;SDS011;36153;50.960;6.220;2024-02-04T00:35:37;3.88;;;2.78;;
50267;SDS011;36153;50.960;6.220;2024-02-04T00:37:38;3.60;;;2.15;;
50267;SDS011;36153;50.960;6.220;2024-02-04T00:39:38;2.10;;;1.63;;
50267;SDS011;36153;50.960;6.220;2024-02-04T00:41:38;3.53;;;1.55;;
50267;SDS011;36153;50.960;6.220;2024-02-04T00:43:39;3.83;;;1.45;;
50267;SDS011;36153;50.960;6.220;2024-02-04T00:45:39;2.80;;;1.90;;
50267;SDS011;36153;50.960;6.220;2024-02-04T00:47:39;2.80;;;1.40;;
50267;SDS011;36153;50.960;6.220;2024-02-04T00:49:40;2.53;;;1.45;;
50267;SDS011;36153;50.960;6.220;2024-02-04T00:51:40;2.00;;;1.20;;
50267;SDS011;36153;50.960;6.220;2024-02-04T00:53:40;3.65;;;1.70;;
50267;SDS011;36153;50.960;6.220;2024-02-04T00:55:41;2.10;;;1.17;;
50267;SDS011;36153;50.960;6.220;2024-02-04T00:57:41;2.42;;;1.38;;
50267;SDS011;36153;50.960;6.220;2024-02-04T00:59:41;3.42;;;2.00;;
50267;SDS011;36153;50.960;6.220;2024-02-04T01:01:42;2.45;;;1.75;;
50267;SDS011;36153;50.960;6.220;2024-02-04T01:03:43;2.40;;;1.30;;
50267;SDS011;36153;50.960;6.220;2024-02-04T01:05:43;2.13;;;1.25;;
50267;SDS011;36153;50.960;6.220;2024-02-04T01:07:43;2.85;;;1.70;;
50267;SDS011;36153;50.960;6.220;2024-02-04T01:09:44;2.58;;;1.73;;
50267;SDS011;36153;50.960;6.220;2024-02-04T01:11:44;2.17;;;1.25;;
50267;SDS011;36153;50.960;6.220;2024-02-04T01:13:45;2.97;;;1.52;;
50267;SDS011;36153;50.960;6.220;2024-02-04T01:15:45;2.25;;;1.52;;
50267;SDS011;36153;50.960;6.220;2024-02-04T01:17:46;1.63;;;1.23;;
50267;SDS011;36153;50.960;6.220;2024-02-04T01:19:46;1.75;;;0.90;;
50267;SDS011;36153;50.960;6.220;2024-02-04T01:21:46;2.53;;;1.30;;
50267;SDS011;36153;50.960;6.220;2024-02-04T01:23:47;2.03;;;1.17;;
50267;SDS011;36153;50.960;6.220;2024-02-04T01:25:47;2.22;;;1.33;;
50267;SDS011;36153;50.960;6.220;2024-02-04T01:27:47;2.15;;;1.40;;
50267;SDS011;36153;50.960;6.220;2024-02-04T01:29:48;3.00;;;1.73;;
50267;SDS011;36153;50.960;6.220;2024-02-04T01:31:48;1.80;;;1.50;;
50267;SDS011;36153;50.960;6.220;2024-02-04T01:33:51;2.80;;;1.15;;
50267;SDS011;36153;50.960;6.220;2024-02-04T01:35:51;2.00;;;1.40;;
50267;SDS011;36153;50.960;6.220;2024-02-04T01:37:52;1.80;;;1.33;;
50267;SDS011;36153;50.960;6.220;2024-02-04T01:39:53;2.03;;;1.42;;
50267;SDS011;36153;50.960;6.220;2024-02-04T01:41:53;2.38;;;1.52;;
50267;SDS011;36153;50.960;6.220;2024-02-04T01:43:54;1.63;;;1.05;;
50267;SDS011;36153;50.960;6.220;2024-02-04T01:45:55;1.52;;;1.17;;
50267;SDS011;36153;50.960;6.220;2024-02-04T01:47:56;2.95;;;1.48;;
50267;SDS011;36153;50.960;6.220;2024-02-04T01:49:56;1.90;;;1.17;;
50267;SDS011;36153;50.960;6.220;2024-02-04T01:51:57;2.38;;;1.83;;
50267;SDS011;36153;50.960;6.220;2024-02-04T01:53:58;2.60;;;1.48;;
50267;SDS011;36153;50.960;6.220;2024-02-04T01:55:58;3.45;;;1.48;;
50267;SDS011;36153;50.960;6.220;2024-02-04T01:57:59;4.47;;;2.00;;
50267;SDS011;36153;50.960;6.220;2024-02-04T01:59:59;1.92;;;1.23;;
50267;SDS011;36153;50.960;6.220;2024-02-04T02:02:00;2.15;;;1.42;;
50267;SDS011;36153;50.960;6.220;2024-02-04T02:04:01;2.45;;;1.48;;
50267;SDS011;36153;50.960;6.220;2024-02-04T02:06:02;2.25;;;1.52;;
50267;SDS011;36153;50.960;6.220;2024-02-04T02:08:03;2.35;;;1.60;;
50267;SDS011;36153;50.960;6.220;2024-02-04T02:10:04;3.13;;;1.73;;
50267;SDS011;36153;50.960;6.220;2024-02-04T02:14:13;2.63;;;1.77;;
50267;SDS011;36153;50.960;6.220;2024-02-04T02:16:16;3.15;;;1.40;;
50267;SDS011;36153;50.960;6.220;2024-02-04T02:18:23;1.60;;;1.25;;
50267;SDS011;36153;50.960;6.220;2024-02-04T02:20:30;1.83;;;1.20;;
50267;SDS011;36153;50.960;6.220;2024-02-04T02:24:45;1.73;;;1.08;;
50267;SDS011;36153;50.960;6.220;2024-02-04T02:26:46;2.83;;;1.70;;
50267;SDS011;36153;50.960;6.220;2024-02-04T02:28:48;2.95;;;1.70;;
50267;SDS011;36153;50.960;6.220;2024-02-04T02:30:48;2.28;;;1.55;;
50267;SDS011;36153;50.960;6.220;2024-02-04T02:32:48;2.25;;;1.58;;
50267;SDS011;36153;50.960;6.220;2024-02-04T02:34:50;2.50;;;1.88;;
50267;SDS011;36153;50.960;6.220;2024-02-04T02:36:56;3.75;;;2.10;;
50267;SDS011;36153;50.960;6.220;2024-02-04T02:39:06;3.17;;;2.00;;
50267;SDS011;36153;50.960;6.220;2024-02-04T02:41:12;2.83;;;2.22;;
50267;SDS011;36153;50.960;6.220;2024-02-04T02:43:15;3.30;;;2.45;;
50267;SDS011;36153;50.960;6.220;2024-02-04T02:45:16;3.42;;;2.13;;
50267;SDS011;36153;50.960;6.220;2024-02-04T02:47:21;3.58;;;2.30;;
50267;SDS011;36153;50.960;6.220;2024-02-04T02:49:23;3.30;;;2.30;;
50267;SDS011;36153;50.960;6.220;2024-02-04T02:51:24;3.25;;;2.17;;
50267;SDS011;36153;50.960;6.220;2024-02-04T02:53:25;4.38;;;2.63;;
50267;SDS011;36153;50.960;6.220;2024-02-04T02:55:25;4.30;;;2.35;;
50267;SDS011;36153;50.960;6.220;2024-02-04T02:57:27;3.00;;;2.28;;
50267;SDS011;36153;50.960;6.220;2024-02-04T02:59:27;3.55;;;2.03;;
50267;SDS011;36153;50.960;6.220;2024-02-04T03:01:28;3.78;;;2.30;;
50267;SDS011;36153;50.960;6.220;2024-02-04T03:03:28;3.75;;;2.60;;
50267;SDS011;36153;50.960;6.220;2024-02-04T03:05:29;4.25;;;2.30;;
50267;SDS011;36153;50.960;6.220;2024-02-04T03:07:29;3.22;;;2.25;;
50267;SDS011;36153;50.960;6.220;2024-02-04T03:09:30;2.75;;;2.03;;
50267;SDS011;36153;50.960;6.220;2024-02-04T03:11:30;3.53;;;2.47;;
50267;SDS011;36153;50.960;6.220;2024-02-04T03:13:31;3.55;;;2.00;;
50267;SDS011;36153;50.960;6.220;2024-02-04T03:15:31;3.70;;;2.38;;
50267;SDS011;36153;50.960;6.220;2024-02-04T03:17:31;3.72;;;1.80;;
50267;SDS011;36153;50.960;6.220;2024-02-04T03:19:32;3.05;;;1.85;;
50267;SDS011;36153;50.960;6.220;2024-02-04T03:21:32;3.63;;;1.83;;
50267;SDS011;36153;50.960;6.220;2024-02-04T03:23:32;3.05;;;1.88;;
50267;SDS011;36153;50.960;6.220;2024-02-04T03:25:33;3.50;;;1.58;;
50267;SDS011;36153;50.960;6.220;2024-02-04T03:27:33;2.88;;;1.80;;
50267;SDS011;36153;50.960;6.220;2024-02-04T03:29:34;2.70;;;1.77;;
50267;SDS011;36153;50.960;6.220;2024-02-04T03:31:34;3.40;;;1.98;;
50267;SDS011;36153;50.960;6.220;2024-02-04T03:33:34;3.20;;;1.85;;
50267;SDS011;36153;50.960;6.220;2024-02-04T03:35:35;3.40;;;1.80;;
50267;SDS011;36153;50.960;6.220;2024-02-04T03:37:37;2.17;;;1.48;;
50267;SDS011;36153;50.960;6.220;2024-02-04T03:39:37;2.83;;;1.90;;
50267;SDS011;36153;50.960;6.220;2024-02-04T03:41:38;2.78;;;2.20;;
50267;SDS011;36153;50.960;6.220;2024-02-04T03:43:38;2.97;;;2.20;;
50267;SDS011;36153;50.960;6.220;2024-02-04T03:45:39;2.53;;;1.85;;
50267;SDS011;36153;50.960;6.220;2024-02-04T03:47:39;3.25;;;2.10;;
50267;SDS011;36153;50.960;6.220;2024-02-04T03:49:40;3.67;;;2.38;;
50267;SDS011;36153;50.960;6.220;2024-02-04T03:51:40;4.55;;;2.28;;
50267;SDS011;36153;50.960;6.220;2024-02-04T03:53:41;4.20;;;2.28;;
50267;SDS011;36153;50.960;6.220;2024-02-04T03:55:41;5.65;;;2.47;;
50267;SDS011;36153;50.960;6.220;2024-02-04T03:57:42;6.55;;;2.97;;
50267;SDS011;36153;50.960;6.220;2024-02-04T03:59:45;5.22;;;2.90;;
50267;SDS011;36153;50.960;6.220;2024-02-04T04:01:49;3.85;;;2.70;;
50267;SDS011;36153;50.960;6.220;2024-02-04T04:03:50;4.00;;;2.72;;
50267;SDS011;36153;50.960;6.220;2024-02-04T04:05:51;4.47;;;3.00;;
50267;SDS011;36153;50.960;6.220;2024-02-04T04:07:53;3.97;;;2.70;;
50267;SDS011;36153;50.960;6.220;2024-02-04T04:09:53;4.57;;;2.58;;
50267;SDS011;36153;50.960;6.220;2024-02-04T04:11:54;5.47;;;4.15;;
50267;SDS011;36153;50.960;6.220;2024-02-04T04:13:54;4.90;;;3.58;;
50267;SDS011;36153;50.960;6.220;2024-02-04T04:15:55;6.22;;;3.92;;
50267;SDS011;36153;50.960;6.220;2024-02-04T04:17:55;4.78;;;3.05;;
50267;SDS011;36153;50.960;6.220;2024-02-04T04:19:56;4.90;;;2.88;;
50267;SDS011;36153;50.960;6.220;2024-02-04T04:21:56;5.97;;;3.90;;
50267;SDS011;36153;50.960;6.220;2024-02-04T04:23:57;5.13;;;3.60;;
50267;SDS011;36153;50.960;6.220;2024-02-04T04:25:57;6.55;;;4.30;;
50267;SDS011;36153;50.960;6.220;2024-02-04T04:27:58;4.72;;;2.95;;
50267;SDS011;36153;50.960;6.220;2024-02-04T04:29:58;5.28;;;2.83;;
50267;SDS011;36153;50.960;6.220;2024-02-04T04:31:58;4.93;;;2.58;;
50267;SDS011;36153;50.960;6.220;2024-02-04T04:33:59;5.38;;;3.90;;
50267;SDS011;36153;50.960;6.220;2024-02-04T04:35:59;4.50;;;2.90;;
50267;SDS011;36153;50.960;6.220;2024-02-04T04:38:00;4.63;;;3.22;;
50267;SDS011;36153;50.960;6.220;2024-02-04T04:40:00;5.25;;;4.05;;
50267;SDS011;36153;50.960;6.220;2024-02-04T04:42:01;5.60;;;2.65;;
50267;SDS011;36153;50.960;6.220;2024-02-04T04:44:01;5.03;;;3.22;;
50267;SDS011;36153;50.960;6.220;2024-02-04T04:46:01;5.18;;;3.03;;
50267;SDS011;36153;50.960;6.220;2024-02-04T04:48:03;6.85;;;4.97;;
50267;SDS011;36153;50.960;6.220;2024-02-04T04:50:04;5.68;;;3.70;;
50267;SDS011;36153;50.960;6.220;2024-02-04T04:52:05;5.75;;;3.42;;
50267;SDS011;36153;50.960;6.220;2024-02-04T04:54:06;4.32;;;3.17;;
50267;SDS011;36153;50.960;6.220;2024-02-04T04:56:06;5.68;;;3.53;;
50267;SDS011;36153;50.960;6.220;2024-02-04T04:58:08;4.65;;;3.55;;
50267;SDS011;36153;50.960;6.220;2024-02-04T05:00:08;4.85;;;3.58;;
50267;SDS011;36153;50.960;6.220;2024-02-04T05:02:10;4.85;;;3.33;;
50267;SDS011;36153;50.960;6.220;2024-02-04T05:04:12;4.80;;;3.85;;
50267;SDS011;36153;50.960;6.220;2024-02-04T05:06:12;5.95;;;3.85;;
50267;SDS011;36153;50.960;6.220;2024-02-04T05:08:13;6.45;;;3.65;;
50267;SDS011;36153;50.960;6.220;2024-02-04T05:10:15;5.55;;;3.63;;
50267;SDS011;36153;50.960;6.220;2024-02-04T05:12:15;5.55;;;3.75;;
50267;SDS011;36153;50.960;6.220;2024-02-04T05:14:16;5.03;;;3.53;;
50267;SDS011;36153;50.960;6.220;2024-02-04T05:16:16;5.93;;;3.20;;
50267;SDS011;36153;50.960;6.220;2024-02-04T05:18:16;6.45;;;4.13;;
50267;SDS011;36153;50.960;6.220;2024-02-04T05:20:17;5.97;;;4.30;;
50267;SDS011;36153;50.960;6.220;2024-02-04T05:22:17;6.72;;;5.07;;
50267;SDS011;36153;50.960;6.220;2024-02-04T05:24:17;7.45;;;4.07;;
50267;SDS011;36153;50.960;6.220;2024-02-04T05:26:18;5.07;;;3.15;;
50267;SDS011;36153;50.960;6.220;2024-02-04T05:28:18;6.03;;;3.88;;
50267;SDS011;36153;50.960;6.220;2024-02-04T05:30:19;8.77;;;3.92;;
50267;SDS011;36153;50.960;6.220;2024-02-04T05:32:19;6.57;;;3.80;;
50267;SDS011;36153;50.960;6.220;2024-02-04T05:34:20;6.88;;;3.90;;
50267;SDS011;36153;50.960;6.220;2024-02-04T05:36:20;4.85;;;2.92;;
50267;SDS011;36153;50.960;6.220;2024-02-04T05:38:23;5.85;;;3.30;;
50267;SDS011;36153;50.960;6.220;2024-02-04T05:42:24;6.28;;;5.15;;
50267;SDS011;36153;50.960;6.220;2024-02-04T05:44:24;4.60;;;2.95;;
50267;SDS011;36153;50.960;6.220;2024-02-04T05:46:25;4.75;;;2.60;;
50267;SDS011;36153;50.960;6.220;2024-02-04T05:48:27;7.05;;;3.72;;
50267;SDS011;36153;50.960;6.220;2024-02-04T05:50:29;4.18;;;2.63;;
50267;SDS011;36153;50.960;6.220;2024-02-04T05:52:29;4.82;;;2.42;;
50267;SDS011;36153;50.960;6.220;2024-02-04T05:54:30;3.70;;;2.30;;
50267;SDS011;36153;50.960;6.220;2024-02-04T05:56:30;6.15;;;2.83;;
50267;SDS011;36153;50.960;6.220;2024-02-04T05:58:30;3.50;;;2.90;;
50267;SDS011;36153;50.960;6.220;2024-02-04T06:00:31;2.50;;;1.63;;
50267;SDS011;36153;50.960;6.220;2024-02-04T06:02:31;2.85;;;1.90;;
50267;SDS011;36153;50.960;6.220;2024-02-04T06:04:31;3.63;;;1.67;;
50267;SDS011;36153;50.960;6.220;2024-02-04T06:06:32;2.50;;;1.35;;
50267;SDS011;36153;50.960;6.220;2024-02-04T06:08:33;2.33;;;1.23;;
50267;SDS011;36153;50.960;6.220;2024-02-04T06:10:33;3.80;;;1.55;;
50267;SDS011;36153;50.960;6.220;2024-02-04T06:12:33;2.67;;;1.52;;
50267;SDS011;36153;50.960;6.220;2024-02-04T06:14:33;1.85;;;1.23;;
50267;SDS011;36153;50.960;6.220;2024-02-04T06:16:39;2.47;;;1.35;;
50267;SDS011;36153;50.960;6.220;2024-02-04T06:18:40;2.88;;;1.15;;
50267;SDS011;36153;50.960;6.220;2024-02-04T06:20:40;2.28;;;0.98;;
50267;SDS011;36153;50.960;6.220;2024-02-04T06:22:40;3.42;;;1.20;;
50267;SDS011;36153;50.960;6.220;2024-02-04T06:24:41;2.25;;;1.60;;
50267;SDS011;36153;50.960;6.220;2024-02-04T06:26:41;1.90;;;1.20;;
50267;SDS011;36153;50.960;6.220;2024-02-04T06:28:41;3.67;;;1.33;;
50267;SDS011;36153;50.960;6.220;2024-02-04T06:30:46;2.38;;;1.15;;
50267;SDS011;36153;50.960;6.220;2024-02-04T06:32:47;1.98;;;1.10;;
50267;SDS011;36153;50.960;6.220;2024-02-04T06:34:51;1.85;;;1.00;;
50267;SDS011;36153;50.960;6.220;2024-02-04T06:36:51;1.77;;;0.90;;
50267;SDS011;36153;50.960;6.220;2024-02-04T06:38:51;2.03;;;1.20;;
50267;SDS011;36153;50.960;6.220;2024-02-04T06:40:52;2.88;;;1.42;;
50267;SDS011;36153;50.960;6.220;2024-02-04T06:42:52;1.63;;;0.90;;
50267;SDS011;36153;50.960;6.220;2024-02-04T06:44:52;1.73;;;1.02;;
50267;SDS011;36153;50.960;6.220;2024-02-04T06:46:52;1.60;;;0.80;;
50267;SDS011;36153;50.960;6.220;2024-02-04T06:48:53;1.23;;;0.70;;
50267;SDS011;36153;50.960;6.220;2024-02-04T06:50:53;1.30;;;0.63;;
50267;SDS011;36153;50.960;6.220;2024-02-04T06:52:54;1.02;;;0.60;;
50267;SDS011;36153;50.960;6.220;2024-02-04T06:54:54;1.75;;;0.80;;
50267;SDS011;36153;50.960;6.220;2024-02-04T06:56:54;1.23;;;0.70;;
50267;SDS011;36153;50.960;6.220;2024-02-04T06:58:54;1.10;;;0.52;;
50267;SDS011;36153;50.960;6.220;2024-02-04T07:00:55;0.90;;;0.50;;
50267;SDS011;36153;50.960;6.220;2024-02-04T07:02:55;0.98;;;0.60;;
50267;SDS011;36153;50.960;6.220;2024-02-04T07:04:56;1.02;;;0.60;;
50267;SDS011;36153;50.960;6.220;2024-02-04T07:06:56;1.25;;;0.50;;
50267;SDS011;36153;50.960;6.220;2024-02-04T07:08:57;1.20;;;0.60;;
50267;SDS011;36153;50.960;6.220;2024-02-04T07:10:58;0.60;;;0.32;;
50267;SDS011;36153;50.960;6.220;2024-02-04T07:12:59;1.23;;;0.63;;
50267;SDS011;36153;50.960;6.220;2024-02-04T07:14:59;0.55;;;0.45;;
50267;SDS011;36153;50.960;6.220;2024-02-04T07:17:01;0.73;;;0.40;;
50267;SDS011;36153;50.960;6.220;2024-02-04T07:19:01;0.82;;;0.40;;
50267;SDS011;36153;50.960;6.220;2024-02-04T07:21:02;1.77;;;1.30;;
50267;SDS011;36153;50.960;6.220;2024-02-04T07:23:03;1.73;;;1.10;;
50267;SDS011;36153;50.960;6.220;2024-02-04T07:25:04;2.50;;;1.20;;
50267;SDS011;36153;50.960;6.220;2024-02-04T07:27:05;1.40;;;0.70;;
50267;SDS011;36153;50.960;6.220;2024-02-04T07:29:05;2.95;;;2.22;;
50267;SDS011;36153;50.960;6.220;2024-02-04T07:31:07;1.92;;;1.67;;
50267;SDS011;36153;50.960;6.220;2024-02-04T07:33:13;1.67;;;1.20;;
50267;SDS011;36153;50.960;6.220;2024-02-04T07:35:13;2.47;;;1.40;;
50267;SDS011;36153;50.960;6.220;2024-02-04T07:37:13;1.60;;;1.02;;
50267;SDS011;36153;50.960;6.220;2024-02-04T07:39:15;3.10;;;1.58;;
50267;SDS011;36153;50.960;6.220;2024-02-04T07:41:15;2.10;;;1.42;;
50267;SDS011;36153;50.960;6.220;2024-02-04T07:43:16;3.00;;;2.28;;
50267;SDS011;36153;50.960;6.220;2024-02-04T07:45:18;2.28;;;1.25;;
50267;SDS011;36153;50.960;6.220;2024-02-04T07:47:18;3.83;;;1.50;;
50267;SDS011;36153;50.960;6.220;2024-02-04T07:49:21;3.53;;;1.95;;
50267;SDS011;36153;50.960;6.220;2024-02-04T07:51:21;3.05;;;2.38;;
50267;SDS011;36153;50.960;6.220;2024-02-04T07:53:21;3.63;;;2.17;;
50267;SDS011;36153;50.960;6.220;2024-02-04T07:55:23;3.63;;;2.45;;
50267;SDS011;36153;50.960;6.220;2024-02-04T07:57:23;3.20;;;2.00;;
50267;SDS011;36153;50.960;6.220;2024-02-04T07:59:25;2.83;;;1.73;;
50267;SDS011;36153;50.960;6.220;2024-02-04T08:01:25;3.65;;;1.50;;
50267;SDS011;36153;50.960;6.220;2024-02-04T08:03:25;2.10;;;1.52;;
50267;SDS011;36153;50.960;6.220;2024-02-04T08:05:25;4.00;;;2.75;;
50267;SDS011;36153;50.960;6.220;2024-02-04T08:07:26;2.45;;;1.45;;
50267;SDS011;36153;50.960;6.220;2024-02-04T08:09:26;3.75;;;1.98;;
50267;SDS011;36153;50.960;6.220;2024-02-04T08:11:27;3.17;;;1.90;;
50267;SDS011;36153;50.960;6.220;2024-02-04T08:13:27;3.53;;;2.20;;
50267;SDS011;36153;50.960;6.220;2024-02-04T08:15:28;4.00;;;1.70;;
50267;SDS011;36153;50.960;6.220;2024-02-04T08:17:28;2.28;;;1.63;;
50267;SDS011;36153;50.960;6.220;2024-02-04T08:19:31;3.15;;;1.90;;
50267;SDS011;36153;50.960;6.220;2024-02-04T08:21:31;5.40;;;4.72;;
50267;SDS011;36153;50.960;6.220;2024-02-04T08:23:32;2.67;;;1.25;;
50267;SDS011;36153;50.960;6.220;2024-02-04T08:25:32;4.55;;;2.58;;
50267;SDS011;36153;50.960;6.220;2024-02-04T08:27:33;2.40;;;1.88;;
50267;SDS011;36153;50.960;6.220;2024-02-04T08:29:34;2.10;;;1.30;;
50267;SDS011;36153;50.960;6.220;2024-02-04T08:31:35;1.83;;;0.98;;
50267;SDS011;36153;50.960;6.220;2024-02-04T08:33:35;1.63;;;1.02;;
50267;SDS011;36153;50.960;6.220;2024-02-04T08:35:36;1.00;;;0.70;;
50267;SDS011;36153;50.960;6.220;2024-02-04T08:37:36;1.00;;;0.70;;
50267;SDS011;36153;50.960;6.220;2024-02-04T08:39:37;0.90;;;0.68;;
50267;SDS011;36153;50.960;6.220;2024-02-04T08:41:38;0.60;;;0.43;;
50267;SDS011;36153;50.960;6.220;2024-02-04T08:43:38;1.42;;;0.80;;
50267;SDS011;36153;50.960;6.220;2024-02-04T08:45:38;1.20;;;0.60;;
50267;SDS011;36153;50.960;6.220;2024-02-04T08:47:39;1.40;;;0.52;;
50267;SDS011;36153;50.960;6.220;2024-02-04T08:49:39;1.00;;;0.40;;
50267;SDS011;36153;50.960;6.220;2024-02-04T08:51:39;1.20;;;0.68;;
50267;SDS011;36153;50.960;6.220;2024-02-04T08:53:40;1.05;;;0.70;;
50267;SDS011;36153;50.960;6.220;2024-02-04T08:55:40;1.33;;;0.70;;
50267;SDS011;36153;50.960;6.220;2024-02-04T08:57:41;1.23;;;0.63;;
50267;SDS011;36153;50.960;6.220;2024-02-04T08:59:41;1.60;;;0.85;;
50267;SDS011;36153;50.960;6.220;2024-02-04T09:01:41;1.92;;;0.90;;
50267;SDS011;36153;50.960;6.220;2024-02-04T09:03:42;1.15;;;0.73;;
50267;SDS011;36153;50.960;6.220;2024-02-04T09:05:42;1.33;;;0.82;;
50267;SDS011;36153;50.960;6.220;2024-02-04T09:07:42;2.00;;;0.75;;
50267;SDS011;36153;50.960;6.220;2024-02-04T09:09:46;1.88;;;0.70;;
50267;SDS011;36153;50.960;6.220;2024-02-04T09:11:46;1.17;;;0.63;;
50267;SDS011;36153;50.960;6.220;2024-02-04T09:13:46;1.88;;;1.23;;
50267;SDS011;36153;50.960;6.220;2024-02-04T09:15:47;1.67;;;0.98;;
50267;SDS011;36153;50.960;6.220;2024-02-04T09:17:48;2.00;;;1.00;;
50267;SDS011;36153;50.960;6.220;2024-02-04T09:19:49;2.17;;;1.00;;
50267;SDS011;36153;50.960;6.220;2024-02-04T09:21:49;1.77;;;0.90;;
50267;SDS011;36153;50.960;6.220;2024-02-04T09:23:49;2.47;;;1.48;;
50267;SDS011;36153;50.960;6.220;2024-02-04T09:25:50;2.22;;;1.05;;
50267;SDS011;36153;50.960;6.220;2024-02-04T09:27:50;1.95;;;1.00;;
50267;SDS011;36153;50.960;6.220;2024-02-04T09:29:52;3.03;;;1.20;;
50267;SDS011;36153;50.960;6.220;2024-02-04T09:31:55;2.10;;;1.30;;
50267;SDS011;36153;50.960;6.220;2024-02-04T09:33:55;2.08;;;1.40;;
50267;SDS011;36153;50.960;6.220;2024-02-04T09:35:56;2.42;;;1.25;;
50267;SDS011;36153;50.960;6.220;2024-02-04T09:37:57;3.00;;;1.67;;
50267;SDS011;36153;50.960;6.220;2024-02-04T09:39:58;2.17;;;1.13;;
50267;SDS011;36153;50.960;6.220;2024-02-04T09:41:58;2.85;;;1.20;;
50267;SDS011;36153;50.960;6.220;2024-02-04T09:43:59;2.53;;;1.77;;
50267;SDS011;36153;50.960;6.220;2024-02-04T09:46:04;4.22;;;2.28;;
50267;SDS011;36153;50.960;6.220;2024-02-04T09:48:04;4.03;;;2.28;;
50267;SDS011;36153;50.960;6.220;2024-02-04T09:50:06;3.80;;;2.08;;
50267;SDS011;36153;50.960;6.220;2024-02-04T09:52:07;4.15;;;2.35;;
50267;SDS011;36153;50.960;6.220;2024-02-04T09:54:09;3.05;;;2.35;;
50267;SDS011;36153;50.960;6.220;2024-02-04T09:56:11;3.92;;;2.13;;
50267;SDS011;36153;50.960;6.220;2024-02-04T09:58:12;6.68;;;2.88;;
50267;SDS011;36153;50.960;6.220;2024-02-04T10:00:12;11.02;;;5.68;;
50267;SDS011;36153;50.960;6.220;2024-02-04T10:02:13;3.85;;;2.53;;
50267;SDS011;36153;50.960;6.220;2024-02-04T10:04:13;4.25;;;2.35;;
50267;SDS011;36153;50.960;6.220;2024-02-04T10:06:14;4.78;;;2.45;;
50267;SDS011;36153;50.960;6.220;2024-02-04T10:08:14;3.65;;;2.90;;
50267;SDS011;36153;50.960;6.220;2024-02-04T10:10:15;3.67;;;2.38;;
50267;SDS011;36153;50.960;6.220;2024-02-04T10:12:15;4.60;;;2.88;;
50267;SDS011;36153;50.960;6.220;2024-02-04T10:14:16;4.15;;;2.38;;
50267;SDS011;36153;50.960;6.220;2024-02-04T10:16:19;4.00;;;2.55;;
50267;SDS011;36153;50.960;6.220;2024-02-04T10:18:20;2.58;;;1.65;;
50267;SDS011;36153;50.960;6.220;2024-02-04T10:20:21;2.28;;;1.88;;
50267;SDS011;36153;50.960;6.220;2024-02-04T10:22:21;3.72;;;2.10;;
50267;SDS011;36153;50.960;6.220;2024-02-04T10:24:22;3.42;;;1.65;;
50267;SDS011;36153;50.960;6.220;2024-02-04T10:26:22;2.72;;;2.30;;
50267;SDS011;36153;50.960;6.220;2024-02-04T10:28:23;2.22;;;1.48;;
50267;SDS011;36153;50.960;6.220;2024-02-04T10:30:24;3.58;;;1.73;;
50267;SDS011;36153;50.960;6.220;2024-02-04T10:32:25;3.72;;;2.30;;
50267;SDS011;36153;50.960;6.220;2024-02-04T10:34:26;2.58;;;1.65;;
50267;SDS011;36153;50.960;6.220;2024-02-04T10:36:29;2.00;;;1.67;;
50267;SDS011;36153;50.960;6.220;2024-02-04T10:38:30;3.75;;;1.83;;
50267;SDS011;36153;50.960;6.220;2024-02-04T10:40:31;2.60;;;1.60;;
50267;SDS011;36153;50.960;6.220;2024-02-04T10:42:31;3.35;;;2.60;;
50267;SDS011;36153;50.960;6.220;2024-02-04T10:44:35;4.07;;;2.55;;
50267;SDS011;36153;50.960;6.220;2024-02-04T10:48:52;2.67;;;1.52;;
50267;SDS011;36153;50.960;6.220;2024-02-04T10:50:56;2.65;;;1.85;;
50267;SDS011;36153;50.960;6.220;2024-02-04T10:53:00;2.70;;;1.52;;
50267;SDS011;36153;50.960;6.220;2024-02-04T10:55:10;2.33;;;1.55;;
50267;SDS011;36153;50.960;6.220;2024-02-04T10:57:12;2.25;;;1.63;;
50267;SDS011;36153;50.960;6.220;2024-02-04T10:59:16;2.00;;;1.30;;
50267;SDS011;36153;50.960;6.220;2024-02-04T11:01:22;4.13;;;1.42;;
50267;SDS011;36153;50.960;6.220;2024-02-04T11:03:23;5.78;;;1.83;;
50267;SDS011;36153;50.960;6.220;2024-02-04T11:05:28;1.98;;;1.33;;
50267;SDS011;36153;50.960;6.220;2024-02-04T11:07:31;4.68;;;1.88;;
50267;SDS011;36153;50.960;6.220;2024-02-04T11:11:33;2.90;;;1.70;;
50267;SDS011;36153;50.960;6.220;2024-02-04T11:13:33;4.60;;;2.72;;
50267;SDS011;36153;50.960;6.220;2024-02-04T11:15:38;3.95;;;2.10;;
50267;SDS011;36153;50.960;6.220;2024-02-04T11:26:46;3.88;;;1.90;;
50267;SDS011;36153;50.960;6.220;2024-02-04T11:28:47;4.32;;;1.60;;
50267;SDS011;36153;50.960;6.220;2024-02-04T11:30:47;3.65;;;1.60;;
50267;SDS011;36153;50.960;6.220;2024-02-04T11:32:50;4.90;;;1.92;;
50267;SDS011;36153;50.960;6.220;2024-02-04T11:34:52;1.85;;;1.00;;
50267;SDS011;36153;50.960;6.220;2024-02-04T11:36:55;2.30;;;1.52;;
50267;SDS011;36153;50.960;6.220;2024-02-04T11:38:55;2.80;;;1.90;;
50267;SDS011;36153;50.960;6.220;2024-02-04T11:40:59;3.25;;;1.63;;
50267;SDS011;36153;50.960;6.220;2024-02-04T11:43:03;1.70;;;1.35;;
50267;SDS011;36153;50.960;6.220;2024-02-04T11:45:11;3.22;;;1.50;;
50267;SDS011;36153;50.960;6.220;2024-02-04T11:47:22;2.88;;;1.20;;
50267;SDS011;36153;50.960;6.220;2024-02-04T11:49:24;2.42;;;1.23;;
50267;SDS011;36153;50.960;6.220;2024-02-04T11:51:25;2.03;;;1.63;;
50267;SDS011;36153;50.960;6.220;2024-02-04T11:53:26;2.13;;;1.58;;
50267;SDS011;36153;50.960;6.220;2024-02-04T11:55:35;3.95;;;1.85;;
50267;SDS011;36153;50.960;6.220;2024-02-04T11:57:38;1.90;;;1.05;;
50267;SDS011;36153;50.960;6.220;2024-02-04T11:59:40;2.60;;;1.50;;
50267;SDS011;36153;50.960;6.220;2024-02-04T12:01:42;2.47;;;1.23;;
50267;SDS011;36153;50.960;6.220;2024-02-04T12:03:43;2.70;;;1.83;;
50267;SDS011;36153;50.960;6.220;2024-02-04T12:05:43;3.90;;;1.50;;
50267;SDS011;36153;50.960;6.220;2024-02-04T12:07:44;2.33;;;1.42;;
50267;SDS011;36153;50.960;6.220;2024-02-04T12:09:45;2.67;;;1.40;;
50267;SDS011;36153;50.960;6.220;2024-02-04T12:11:46;1.90;;;1.30;;
50267;SDS011;36153;50.960;6.220;2024-02-04T12:13:47;3.95;;;1.08;;
50267;SDS011;36153;50.960;6.220;2024-02-04T12:15:47;2.80;;;1.42;;
50267;SDS011;36153;50.960;6.220;2024-02-04T12:17:48;2.88;;;1.52;;
50267;SDS011;36153;50.960;6.220;2024-02-04T12:19:49;2.10;;;1.35;;
50267;SDS011;36153;50.960;6.220;2024-02-04T12:21:52;2.10;;;1.45;;
50267;SDS011;36153;50.960;6.220;2024-02-04T12:25:58;2.50;;;1.75;;
50267;SDS011;36153;50.960;6.220;2024-02-04T12:27:58;3.05;;;1.90;;
50267;SDS011;36153;50.960;6.220;2024-02-04T12:29:59;1.70;;;1.60;;
50267;SDS011;36153;50.960;6.220;2024-02-04T12:32:00;3.67;;;2.20;;
50267;SDS011;36153;50.960;6.220;2024-02-04T12:34:02;3.50;;;1.70;;